createdAt,value
2019-03-10T00:00:42.390Z,11.10
2019-03-10T00:03:11.256Z,11.30
2019-03-10T00:05:40.102Z,11.20
2019-03-10T00:08:08.932Z,11.20
2019-03-10T00:10:37.787Z,11.20
2019-03-10T00:13:06.589Z,11.10
2019-03-10T00:15:35.476Z,11.10
2019-03-10T00:18:04.318Z,11.10
2019-03-10T00:20:33.245Z,11.10
2019-03-10T00:23:02.088Z,11.10
2019-03-10T00:25:30.939Z,11.00
2019-03-10T00:27:59.797Z,11.00
2019-03-10T00:30:28.619Z,11.10
2019-03-10T00:32:57.503Z,11.10
2019-03-10T00:35:26.448Z,11.00
2019-03-10T00:37:55.307Z,11.00
2019-03-10T00:40:56.017Z,11.00
2019-03-10T00:43:53.193Z,10.90
2019-03-10T00:46:43.351Z,11.00
2019-03-10T00:49:43.965Z,11.10
2019-03-10T00:52:18.535Z,11.10
2019-03-10T00:54:47.419Z,11.10
2019-03-10T00:57:16.229Z,11.10
2019-03-10T00:59:45.077Z,11.10
2019-03-10T01:02:13.899Z,11.00
2019-03-10T01:04:42.785Z,10.70
2019-03-10T01:07:11.642Z,10.40
2019-03-10T01:09:40.488Z,10.10
2019-03-10T01:12:09.671Z,9.80
2019-03-10T01:14:38.548Z,9.60
2019-03-10T01:17:07.359Z,9.40
2019-03-10T01:19:37.580Z,9.20
2019-03-10T01:22:06.376Z,9.10
2019-03-10T01:24:35.294Z,9.00
2019-03-10T01:27:04.160Z,8.90
2019-03-10T01:29:33.023Z,8.80
2019-03-10T01:32:21.340Z,8.70
2019-03-10T01:35:11.023Z,8.60
2019-03-10T01:37:39.887Z,8.50
2019-03-10T01:40:08.720Z,8.40
2019-03-10T01:42:37.592Z,8.40
2019-03-10T01:45:09.790Z,8.30
2019-03-10T01:47:38.951Z,8.20
2019-03-10T01:50:10.767Z,8.20
2019-03-10T01:52:39.627Z,8.10
2019-03-10T01:55:10.781Z,8.10
2019-03-10T01:57:39.675Z,8.10
2019-03-10T02:00:14.740Z,8.00
2019-03-10T02:02:43.582Z,8.00
2019-03-10T02:05:12.448Z,8.00
2019-03-10T02:07:41.328Z,7.90
2019-03-10T02:10:12.048Z,7.90
2019-03-10T02:12:40.861Z,7.90
2019-03-10T02:15:12.847Z,7.80
2019-03-10T02:17:41.723Z,7.80
2019-03-10T02:20:13.475Z,7.80
2019-03-10T02:22:42.300Z,7.70
2019-03-10T02:25:11.355Z,7.70
2019-03-10T02:27:40.160Z,7.70
2019-03-10T02:30:12.129Z,7.60
2019-03-10T02:32:41.008Z,7.60
2019-03-10T02:35:09.812Z,7.50
2019-03-10T02:37:38.675Z,7.50
2019-03-10T02:40:08.273Z,7.50
2019-03-10T02:42:37.180Z,7.50
2019-03-10T02:45:07.622Z,7.50
2019-03-10T02:47:36.477Z,7.50
2019-03-10T02:50:07.839Z,7.40
2019-03-10T02:52:36.716Z,7.40
2019-03-10T02:55:07.954Z,7.40
2019-03-10T02:57:36.780Z,7.40
2019-03-10T03:00:11.200Z,7.30
2019-03-10T03:02:44.680Z,7.30
2019-03-10T03:05:14.364Z,7.20
2019-03-10T03:07:43.196Z,7.20
2019-03-10T03:10:13.557Z,7.20
2019-03-10T03:12:42.379Z,7.20
2019-03-10T03:15:11.658Z,7.20
2019-03-10T03:17:40.453Z,7.30
2019-03-10T03:20:11.799Z,7.40
2019-03-10T03:22:40.604Z,7.60
2019-03-10T03:25:11.479Z,7.80
2019-03-10T03:27:40.291Z,8.10
2019-03-10T03:30:19.079Z,8.30
2019-03-10T03:32:48.025Z,8.40
2019-03-10T03:35:45.488Z,8.60
2019-03-10T03:38:15.179Z,8.60
2019-03-10T03:40:46.957Z,8.70
2019-03-10T03:43:15.795Z,8.80
2019-03-10T03:45:44.705Z,8.80
2019-03-10T03:48:13.623Z,8.70
2019-03-10T03:50:42.494Z,8.60
2019-03-10T03:53:11.328Z,8.60
2019-03-10T03:55:40.187Z,8.40
2019-03-10T03:58:09.050Z,8.40
2019-03-10T04:00:37.951Z,8.30
2019-03-10T04:03:06.720Z,8.30
2019-03-10T04:05:35.564Z,8.30
2019-03-10T04:08:04.381Z,8.30
2019-03-10T04:10:33.266Z,8.30
2019-03-10T04:13:02.077Z,8.20
2019-03-10T04:15:30.903Z,8.20
2019-03-10T04:17:59.764Z,8.30
2019-03-10T04:20:28.681Z,8.40
2019-03-10T04:22:57.576Z,8.40
2019-03-10T04:25:26.471Z,8.30
2019-03-10T04:27:55.280Z,8.20
2019-03-10T04:30:24.148Z,8.10
2019-03-10T04:32:53.022Z,8.30
2019-03-10T04:35:26.621Z,8.30
2019-03-10T04:37:55.428Z,8.40
2019-03-10T04:40:24.295Z,8.40
2019-03-10T04:42:53.113Z,8.40
2019-03-10T04:45:22.003Z,8.40
2019-03-10T04:47:50.928Z,8.40
2019-03-10T04:50:19.834Z,8.40
2019-03-10T04:52:48.735Z,8.30
2019-03-10T04:55:35.555Z,8.20
2019-03-10T04:58:08.991Z,8.00
2019-03-10T05:00:39.371Z,7.90
2019-03-10T05:03:08.304Z,7.90
2019-03-10T05:05:37.108Z,8.20
2019-03-10T05:08:05.981Z,8.50
2019-03-10T05:10:34.786Z,8.70
2019-03-10T05:13:03.691Z,9.00
2019-03-10T05:15:32.596Z,9.20
2019-03-10T05:18:01.458Z,9.30
2019-03-10T05:20:30.318Z,9.30
2019-03-10T05:23:27.421Z,9.30
2019-03-10T05:25:56.737Z,9.20
2019-03-10T05:28:25.551Z,9.10
2019-03-10T05:30:54.384Z,8.90
2019-03-10T05:33:23.248Z,8.80
2019-03-10T05:35:52.141Z,8.70
2019-03-10T05:38:20.970Z,8.60
2019-03-10T05:40:49.808Z,8.60
2019-03-10T05:43:18.697Z,8.50
2019-03-10T05:45:47.487Z,8.40
2019-03-10T05:48:16.299Z,8.30
2019-03-10T05:50:45.131Z,8.20
2019-03-10T05:53:14.042Z,8.10
2019-03-10T05:55:42.847Z,8.00
2019-03-10T05:58:11.690Z,7.90
2019-03-10T06:00:43.027Z,7.80
2019-03-10T06:03:11.015Z,7.70
2019-03-10T06:05:39.893Z,7.70
2019-03-10T06:08:08.767Z,7.60
2019-03-10T06:10:37.715Z,7.60
2019-03-10T06:13:06.556Z,7.60
2019-03-10T06:15:35.355Z,7.70
2019-03-10T06:18:12.988Z,7.70
2019-03-10T06:20:34.686Z,7.70
2019-03-10T06:23:03.524Z,7.70
2019-03-10T06:25:35.003Z,7.80
2019-03-10T06:28:02.888Z,7.80
2019-03-10T06:30:31.746Z,7.80
2019-03-10T06:33:00.608Z,7.90
2019-03-10T06:35:29.443Z,7.90
2019-03-10T06:37:58.269Z,7.90
2019-03-10T06:40:32.070Z,7.90
2019-03-10T06:42:57.594Z,8.00
2019-03-10T06:45:26.479Z,8.00
2019-03-10T06:47:55.271Z,8.00
2019-03-10T06:50:24.100Z,8.00
2019-03-10T06:52:52.961Z,8.00
2019-03-10T06:55:26.683Z,8.10
2019-03-10T06:57:55.822Z,8.10
2019-03-10T07:00:24.616Z,8.10
2019-03-10T07:02:53.433Z,8.20
2019-03-10T07:05:22.321Z,8.20
2019-03-10T07:07:51.147Z,8.20
2019-03-10T07:10:20.018Z,8.30
2019-03-10T07:12:48.831Z,8.40
2019-03-10T07:15:17.828Z,8.40
2019-03-10T07:17:46.665Z,8.50
2019-03-10T07:20:20.129Z,8.60
2019-03-10T07:22:48.981Z,8.70
2019-03-10T07:25:17.816Z,8.80
2019-03-10T07:28:03.174Z,8.80
2019-03-10T07:30:36.615Z,8.80
2019-03-10T07:33:06.984Z,8.80
2019-03-10T07:35:43.241Z,8.80
2019-03-10T07:38:30.238Z,8.70
2019-03-10T07:41:03.394Z,8.70
2019-03-10T07:43:34.739Z,8.80
2019-03-10T07:46:14.328Z,9.10
2019-03-10T07:48:56.729Z,9.30
2019-03-10T07:51:29.611Z,9.50
2019-03-10T07:54:16.223Z,9.80
2019-03-10T07:56:52.386Z,10.00
2019-03-10T07:59:31.402Z,10.20
2019-03-10T08:02:01.822Z,10.40
2019-03-10T08:04:44.310Z,10.60
2019-03-10T08:07:24.034Z,10.70
2019-03-10T08:10:06.483Z,10.80
2019-03-10T08:12:36.876Z,10.90
2019-03-10T08:15:11.992Z,11.10
2019-03-10T08:17:48.141Z,11.20
2019-03-10T08:20:24.728Z,11.20
2019-03-10T08:22:55.072Z,11.30
2019-03-10T08:25:28.209Z,11.30
2019-03-10T08:28:02.156Z,11.40
2019-03-10T08:30:38.721Z,11.50
2019-03-10T08:33:18.125Z,11.60
2019-03-10T08:35:48.655Z,11.60
2019-03-10T08:38:19.237Z,11.70
2019-03-10T08:41:06.160Z,11.60
2019-03-10T08:43:36.700Z,11.50
2019-03-10T08:46:07.198Z,11.30
2019-03-10T08:48:46.729Z,11.10
2019-03-10T08:51:32.160Z,10.90
2019-03-10T08:54:02.692Z,10.80
2019-03-10T08:56:33.147Z,10.70
2019-03-10T08:59:15.703Z,10.60
2019-03-10T09:02:01.104Z,10.60
2019-03-10T09:04:55.157Z,10.50
2019-03-10T09:07:31.280Z,10.50
2019-03-10T09:10:18.248Z,10.40
2019-03-10T09:12:54.758Z,10.30
2019-03-10T09:15:34.213Z,10.20
2019-03-10T09:18:04.656Z,10.20
2019-03-10T09:20:38.063Z,10.10
2019-03-10T09:23:11.296Z,10.00
2019-03-10T09:25:41.696Z,10.00
2019-03-10T09:28:28.319Z,9.90
2019-03-10T09:30:58.688Z,9.90
2019-03-10T09:33:41.095Z,9.90
2019-03-10T09:36:14.388Z,9.80
2019-03-10T09:38:53.888Z,9.70
2019-03-10T09:41:24.336Z,9.70
2019-03-10T09:44:10.072Z,9.70
2019-03-10T09:46:40.511Z,9.70
2019-03-10T09:49:16.892Z,9.70
2019-03-10T09:51:50.277Z,9.70
2019-03-10T09:54:23.590Z,9.70
2019-03-10T09:56:54.004Z,9.60
2019-03-10T09:59:30.467Z,9.50
2019-03-10T10:02:05.233Z,9.50
2019-03-10T10:04:38.658Z,9.50
2019-03-10T10:07:15.096Z,9.40
2019-03-10T10:09:45.475Z,9.40
2019-03-10T10:12:20.540Z,9.40
2019-03-10T10:14:56.998Z,9.40
2019-03-10T10:17:36.713Z,9.40
2019-03-10T10:20:08.265Z,9.50
2019-03-10T10:22:41.523Z,9.50
2019-03-10T10:25:18.001Z,9.60
2019-03-10T10:27:57.438Z,9.80
2019-03-10T10:30:30.829Z,9.90
2019-03-10T10:33:01.220Z,9.90
2019-03-10T10:35:41.003Z,10.00
2019-03-10T10:38:18.739Z,10.10
2019-03-10T10:40:46.300Z,10.10
2019-03-10T10:43:28.476Z,10.20
2019-03-10T10:45:59.018Z,10.20
2019-03-10T10:48:41.803Z,10.20
2019-03-10T10:51:15.370Z,10.20
2019-03-10T10:53:45.752Z,10.20
2019-03-10T10:56:34.597Z,10.20
2019-03-10T10:59:04.959Z,10.20
2019-03-10T11:01:50.268Z,10.20
2019-03-10T11:04:20.649Z,10.30
2019-03-10T11:07:07.447Z,10.30
2019-03-10T11:09:44.131Z,10.20
2019-03-10T11:12:18.031Z,10.20
2019-03-10T11:14:57.472Z,10.20
2019-03-10T11:17:27.897Z,10.30
2019-03-10T11:20:01.125Z,10.40
2019-03-10T11:22:31.520Z,10.50
2019-03-10T11:25:18.510Z,10.60
2019-03-10T11:27:51.594Z,10.60
2019-03-10T11:30:38.106Z,10.60
2019-03-10T11:33:24.658Z,10.60
2019-03-10T11:36:11.280Z,10.70
2019-03-10T11:38:41.719Z,10.70
2019-03-10T11:41:14.937Z,10.80
2019-03-10T11:43:45.408Z,10.80
2019-03-10T11:46:23.554Z,10.80
2019-03-10T11:48:56.975Z,10.80
2019-03-10T11:51:27.409Z,10.80
2019-03-10T11:54:09.915Z,10.80
2019-03-10T11:56:56.934Z,10.80
2019-03-10T11:59:43.668Z,10.80
2019-03-10T12:02:16.497Z,10.80
2019-03-10T12:04:49.225Z,10.80
2019-03-10T12:07:19.971Z,10.70
2019-03-10T12:09:48.851Z,10.70
2019-03-10T12:12:17.757Z,10.70
2019-03-10T12:14:46.789Z,10.70
2019-03-10T12:17:15.926Z,10.70
2019-03-10T12:19:44.811Z,10.70
2019-03-10T12:22:13.716Z,10.70
2019-03-10T12:24:42.694Z,10.70
2019-03-10T12:27:11.638Z,10.70
2019-03-10T12:29:40.457Z,10.70
2019-03-10T12:32:09.240Z,10.80
2019-03-10T12:34:38.107Z,11.00
2019-03-10T12:37:07.008Z,11.10
2019-03-10T12:39:35.836Z,11.20
2019-03-10T12:42:04.679Z,11.30
2019-03-10T12:44:33.591Z,11.40
2019-03-10T12:47:02.414Z,11.50
2019-03-10T12:49:31.267Z,11.60
2019-03-10T12:52:00.117Z,11.70
2019-03-10T12:54:29.102Z,11.90
2019-03-10T12:56:57.956Z,11.90
2019-03-10T12:59:26.774Z,12.00
2019-03-10T13:01:55.644Z,12.10
2019-03-10T13:04:24.468Z,12.10
2019-03-10T13:06:53.322Z,12.10
2019-03-10T13:09:22.177Z,12.20
2019-03-10T13:11:50.972Z,12.30
2019-03-10T13:14:19.810Z,12.30
2019-03-10T13:16:48.771Z,12.40
2019-03-10T13:19:17.587Z,12.50
2019-03-10T13:21:46.577Z,12.50
2019-03-10T13:24:15.376Z,12.70
2019-03-10T13:26:44.238Z,12.70
2019-03-10T13:29:13.078Z,12.90
2019-03-10T13:31:41.942Z,13.00
2019-03-10T13:34:10.800Z,13.10
2019-03-10T13:36:39.602Z,13.30
2019-03-10T13:39:08.482Z,13.50
2019-03-10T13:41:37.471Z,13.80
2019-03-10T13:44:06.379Z,14.40
2019-03-10T13:46:35.342Z,14.90
2019-03-10T13:49:04.224Z,15.20
2019-03-10T13:51:33.153Z,15.40
2019-03-10T13:54:10.592Z,15.60
2019-03-10T13:56:39.387Z,15.60
2019-03-10T13:59:08.382Z,16.00
2019-03-10T14:01:37.187Z,16.20
2019-03-10T14:04:06.047Z,16.00
2019-03-10T14:06:34.858Z,15.50
2019-03-10T14:09:04.739Z,14.90
2019-03-10T14:11:33.540Z,14.60
2019-03-10T14:14:02.393Z,14.30
2019-03-10T14:16:31.248Z,14.00
2019-03-10T14:19:00.070Z,13.70
2019-03-10T14:21:29.020Z,13.50
2019-03-10T14:23:57.968Z,13.40
2019-03-10T14:26:26.822Z,13.20
2019-03-10T14:28:55.713Z,13.10
2019-03-10T14:31:24.650Z,13.00
2019-03-10T14:33:57.075Z,13.00
2019-03-10T14:36:25.325Z,12.90
2019-03-10T14:38:54.148Z,12.90
2019-03-10T14:41:22.987Z,12.90
2019-03-10T14:43:51.800Z,13.00
2019-03-10T14:46:20.618Z,13.20
2019-03-10T14:48:49.471Z,13.50
2019-03-10T14:51:18.337Z,13.80
2019-03-10T14:53:47.191Z,14.00
2019-03-10T14:56:16.002Z,14.20
2019-03-10T14:58:44.892Z,14.10
2019-03-10T15:01:13.730Z,14.00
2019-03-10T15:03:42.590Z,13.90
2019-03-10T15:06:11.385Z,13.90
2019-03-10T15:08:40.282Z,13.90
2019-03-10T15:11:09.093Z,13.80
2019-03-10T15:13:37.950Z,13.80
2019-03-10T15:16:06.826Z,13.70
2019-03-10T15:18:35.645Z,13.70
2019-03-10T15:21:05.123Z,13.70
2019-03-10T15:23:33.932Z,13.70
2019-03-10T15:26:02.789Z,13.70
2019-03-10T15:28:31.640Z,13.70
2019-03-10T15:31:00.500Z,13.80
2019-03-10T15:33:29.327Z,13.80
2019-03-10T15:35:58.164Z,13.80
2019-03-10T15:38:27.026Z,13.80
2019-03-10T15:40:55.956Z,13.70
2019-03-10T15:43:24.856Z,13.60
2019-03-10T15:45:53.635Z,13.70
2019-03-10T15:48:22.490Z,13.70
2019-03-10T15:50:51.378Z,13.60
2019-03-10T15:53:20.220Z,13.60
2019-03-10T15:55:49.119Z,13.60
2019-03-10T15:58:18.001Z,13.60
2019-03-10T16:00:46.795Z,13.60
2019-03-10T16:03:15.671Z,13.60
2019-03-10T16:05:44.515Z,13.60
2019-03-10T16:08:13.432Z,13.50
2019-03-10T16:10:44.767Z,13.50
2019-03-10T16:13:12.788Z,13.50
2019-03-10T16:15:41.674Z,13.50
2019-03-10T16:18:10.596Z,13.50
2019-03-10T16:20:39.486Z,13.50
2019-03-10T16:23:08.347Z,13.50
2019-03-10T16:25:37.194Z,13.40
2019-03-10T16:28:06.147Z,13.40
2019-03-10T16:30:35.056Z,13.40
2019-03-10T16:33:03.944Z,13.40
2019-03-10T16:35:32.989Z,13.40
2019-03-10T16:38:02.949Z,13.60
2019-03-10T16:40:31.824Z,13.70
2019-03-10T16:43:02.175Z,13.60
2019-03-10T16:45:31.102Z,13.70
2019-03-10T16:47:59.939Z,13.70
2019-03-10T16:50:29.509Z,13.70
2019-03-10T16:52:58.445Z,13.70
2019-03-10T16:55:27.421Z,13.70
2019-03-10T16:57:56.240Z,13.80
2019-03-10T17:00:25.128Z,13.90
2019-03-10T17:02:53.955Z,13.80
2019-03-10T17:05:23.646Z,13.80
2019-03-10T17:07:52.543Z,13.70
2019-03-10T17:10:28.181Z,13.70
2019-03-10T17:12:58.486Z,13.60
2019-03-10T17:15:27.485Z,13.60
2019-03-10T17:17:56.373Z,13.70
2019-03-10T17:20:25.217Z,13.80
2019-03-10T17:22:54.149Z,13.80
2019-03-10T17:25:23.049Z,13.80
2019-03-10T17:27:51.878Z,13.90
2019-03-10T17:30:22.380Z,13.80
2019-03-10T17:32:51.538Z,13.80
2019-03-10T17:35:22.272Z,13.80
2019-03-10T17:37:51.262Z,13.80
2019-03-10T17:40:22.297Z,13.80
2019-03-10T17:42:51.151Z,13.90
2019-03-10T17:45:23.739Z,13.90
2019-03-10T17:47:52.584Z,13.90
2019-03-10T17:50:21.649Z,13.70
2019-03-10T17:52:51.039Z,13.60
2019-03-10T17:55:24.099Z,13.40
2019-03-10T17:57:52.964Z,13.30
2019-03-10T18:00:23.868Z,13.10
2019-03-10T18:02:52.745Z,13.10
2019-03-10T18:05:21.580Z,13.00
2019-03-10T18:07:50.486Z,12.90
2019-03-10T18:10:19.455Z,12.70
2019-03-10T18:12:48.379Z,12.60
2019-03-10T18:15:18.942Z,12.60
2019-03-10T18:17:49.239Z,12.50
2019-03-10T18:20:22.540Z,12.50
2019-03-10T18:22:51.703Z,12.40
2019-03-10T18:25:20.577Z,12.30
2019-03-10T18:27:49.480Z,12.30
2019-03-10T18:30:22.628Z,12.20
2019-03-10T18:32:51.563Z,12.10
2019-03-10T18:35:20.575Z,12.10
2019-03-10T18:37:49.508Z,12.00
2019-03-10T18:40:26.530Z,12.00
2019-03-10T18:42:55.394Z,12.00
2019-03-10T18:45:24.289Z,12.10
2019-03-10T18:47:53.188Z,12.00
2019-03-10T18:50:26.872Z,12.10
2019-03-10T18:52:57.027Z,12.20
2019-03-10T18:55:26.000Z,12.20
2019-03-10T18:57:54.884Z,12.10
2019-03-10T19:00:25.946Z,12.10
2019-03-10T19:02:54.949Z,12.00
2019-03-10T19:05:23.913Z,12.00
2019-03-10T19:07:52.874Z,12.00
2019-03-10T19:10:21.924Z,12.00
2019-03-10T19:12:50.826Z,12.00
2019-03-10T19:15:27.248Z,12.10
2019-03-10T19:17:56.233Z,12.10
2019-03-10T19:20:25.559Z,12.00
2019-03-10T19:22:54.450Z,12.00
2019-03-10T19:25:23.376Z,12.00
2019-03-10T19:27:52.325Z,12.00
2019-03-10T19:30:24.813Z,11.90
2019-03-10T19:32:53.711Z,11.90
2019-03-10T19:35:22.653Z,11.80
2019-03-10T19:37:51.567Z,11.80
2019-03-10T19:40:24.609Z,11.80
2019-03-10T19:42:53.647Z,11.90
2019-03-10T19:45:23.774Z,11.90
2019-03-10T19:47:52.842Z,11.90
2019-03-10T19:50:29.597Z,11.90
2019-03-10T19:52:58.510Z,11.90
2019-03-10T19:55:27.496Z,11.80
2019-03-10T19:57:56.414Z,11.80
2019-03-10T20:00:25.309Z,11.80
2019-03-10T20:02:54.140Z,11.90
2019-03-10T20:05:23.000Z,11.90
2019-03-10T20:07:51.866Z,12.00
2019-03-10T20:10:22.051Z,12.00
2019-03-10T20:12:51.099Z,11.90
2019-03-10T20:15:22.155Z,11.90
2019-03-10T20:17:52.596Z,11.80
2019-03-10T20:20:23.828Z,11.80
2019-03-10T20:22:52.641Z,11.70
2019-03-10T20:25:21.542Z,11.60
2019-03-10T20:27:50.486Z,11.60
2019-03-10T20:30:27.166Z,11.70
2019-03-10T20:32:56.107Z,11.60
2019-03-10T20:35:24.987Z,11.50
2019-03-10T20:37:53.855Z,11.50
2019-03-10T20:40:24.383Z,11.40
2019-03-10T20:42:53.312Z,11.30
2019-03-10T20:45:24.259Z,11.10
2019-03-10T20:47:52.801Z,11.10
2019-03-10T20:50:22.886Z,11.00
2019-03-10T20:52:51.789Z,11.00
2019-03-10T20:55:20.680Z,11.10
2019-03-10T20:57:49.526Z,11.10
2019-03-10T21:00:21.369Z,11.20
2019-03-10T21:02:50.235Z,11.20
2019-03-10T21:05:19.088Z,11.20
2019-03-10T21:07:48.028Z,11.20
2019-03-10T21:10:18.852Z,11.10
2019-03-10T21:12:47.835Z,11.10
2019-03-10T21:15:26.218Z,11.00
2019-03-10T21:17:55.378Z,10.90
2019-03-10T21:20:25.464Z,10.90
2019-03-10T21:22:54.423Z,10.90
2019-03-10T21:25:31.962Z,10.90
2019-03-10T21:28:00.932Z,10.90
2019-03-10T21:30:31.216Z,11.00
2019-03-10T21:33:00.196Z,11.00
2019-03-10T21:35:29.010Z,10.90
2019-03-10T21:37:57.854Z,10.90
2019-03-10T21:40:31.467Z,10.80
2019-03-10T21:43:00.322Z,10.80
2019-03-10T21:45:29.167Z,10.80
2019-03-10T21:47:58.028Z,10.80
2019-03-10T21:50:26.849Z,10.80
2019-03-10T21:52:55.688Z,10.80
2019-03-10T21:55:24.592Z,10.80
2019-03-10T21:57:53.420Z,10.90
2019-03-10T22:00:22.236Z,10.80
2019-03-10T22:02:51.093Z,10.70
2019-03-10T22:05:19.983Z,10.60
2019-03-10T22:07:48.933Z,10.60
2019-03-10T22:10:27.027Z,10.50
2019-03-10T22:12:49.471Z,10.50
2019-03-10T22:15:19.570Z,10.60
2019-03-10T22:17:48.395Z,10.60
2019-03-10T22:20:18.256Z,10.60
2019-03-10T22:22:49.581Z,10.50
2019-03-10T22:25:17.741Z,10.40
2019-03-10T22:27:46.686Z,10.40
2019-03-10T22:30:23.196Z,10.40
2019-03-10T22:32:52.108Z,10.40
2019-03-10T22:35:20.936Z,10.30
2019-03-10T22:37:49.811Z,10.30
2019-03-10T22:40:18.856Z,10.30
2019-03-10T22:42:47.823Z,10.20
2019-03-10T22:45:17.609Z,10.20
2019-03-10T22:47:46.466Z,10.20
2019-03-10T22:50:16.117Z,10.20
2019-03-10T22:52:45.243Z,10.30
2019-03-10T22:55:15.605Z,10.30
2019-03-10T22:57:44.443Z,10.40
2019-03-10T23:00:16.256Z,10.40
2019-03-10T23:02:45.078Z,10.30
2019-03-10T23:05:13.896Z,10.20
2019-03-10T23:07:42.736Z,10.10
2019-03-10T23:10:14.274Z,10.10
2019-03-10T23:12:43.132Z,10.10
2019-03-10T23:15:13.376Z,10.20
2019-03-10T23:17:42.332Z,10.10
2019-03-10T23:20:15.700Z,10.10
2019-03-10T23:22:44.880Z,10.10
2019-03-10T23:25:13.878Z,10.10
2019-03-10T23:27:42.688Z,10.10
2019-03-10T23:30:16.533Z,10.20
2019-03-10T23:32:45.361Z,10.00
2019-03-10T23:35:14.424Z,9.60
2019-03-10T23:37:43.263Z,9.30
2019-03-10T23:40:16.979Z,9.10
2019-03-10T23:42:45.892Z,8.90
2019-03-10T23:45:18.963Z,8.70
2019-03-10T23:47:48.062Z,8.60
2019-03-10T23:50:18.136Z,8.50
2019-03-10T23:52:46.971Z,8.40
2019-03-10T23:55:15.856Z,8.40
2019-03-10T23:57:44.816Z,8.40
